Time;durP1;ratioP1;P1;durP2;ratioP2;P2;SDS_P1;SDS_P2;PMS_P1;PMS_P2;Temp;Humidity;BMP_temperature;BMP_pressure;BME280_temperature;BME280_humidity;BME280_pressure;Samples;Min_cycle;Max_cycle;Signal;HPM_P1;HPM_P2
2022/08/12 00:44:09;;;;;;;5.65;4.75;;;;;;;13.97;56.14941;95492.35;;;;
2022/08/12 00:45:12;;;;;;;5.65;4.75;;;;;;;13.97;56.14941;95492.35;;;;
2022/08/12 00:46:45;;;;;;;5.65;4.75;;;;;;;13.97;56.14941;95492.35;;;;
2022/08/12 00:47:49;;;;;;;5.65;4.75;;;;;;;13.97;56.14941;95492.35;;;;
2022/08/12 00:48:51;;;;;;;5.65;4.75;;;;;;;13.97;56.14941;95492.35;;;;
2022/08/12 00:49:53;;;;;;;5.65;4.75;;;;;;;13.97;56.14941;95492.35;;;;
2022/08/12 00:50:54;;;;;;;5.65;4.75;;;;;;;13.97;56.14941;95492.35;;;;
2022/08/12 00:52:10;;;;;;;5.65;4.75;;;;;;;13.97;56.14941;95492.35;;;;
2022/08/12 00:53:12;;;;;;;5.65;4.75;;;;;;;13.97;56.14941;95492.35;;;;
2022/08/12 00:54:13;;;;;;;4.55;4.1;;;;;;;13.77;56.56934;95492.72;;;;
2022/08/12 00:55:15;;;;;;;4.55;4.1;;;;;;;13.77;56.56934;95492.72;;;;
2022/08/12 00:56:17;;;;;;;4.55;4.1;;;;;;;13.77;56.56934;95492.72;;;;
2022/08/12 00:57:20;;;;;;;4.55;4.1;;;;;;;13.77;56.56934;95492.72;;;;
2022/08/12 00:58:23;;;;;;;4.55;4.1;;;;;;;13.77;56.56934;95492.72;;;;
2022/08/12 00:59:25;;;;;;;4.55;4.1;;;;;;;13.77;56.56934;95492.72;;;;
2022/08/12 01:00:25;;;;;;;4.55;4.1;;;;;;;13.77;56.56934;95492.72;;;;
2022/08/12 01:01:26;;;;;;;4.55;4.1;;;;;;;13.77;56.56934;95492.72;;;;
2022/08/12 01:02:27;;;;;;;4.55;4.1;;;;;;;13.77;56.56934;95492.72;;;;
2022/08/12 01:11:27;;;;;;;4.55;4.1;;;;;;;13.77;56.56934;95492.72;;;;
2022/08/12 01:12:28;;;;;;;5.349999;4.35;;;;;;;13.65;56.9248;95486.95;;;;
2022/08/12 01:13:29;;;;;;;5.349999;4.35;;;;;;;13.65;56.9248;95486.95;;;;
2022/08/12 01:14:32;;;;;;;5.349999;4.35;;;;;;;13.65;56.9248;95486.95;;;;
2022/08/12 01:15:33;;;;;;;5.25;4.15;;;;;;;13.47;57.36914;95483.54;;;;
2022/08/12 01:16:34;;;;;;;5.25;4.15;;;;;;;13.47;57.36914;95483.54;;;;
2022/08/12 01:17:35;;;;;;;5.25;4.15;;;;;;;13.47;57.36914;95483.54;;;;
2022/08/12 01:18:36;;;;;;;5.25;4.15;;;;;;;13.47;57.36914;95483.54;;;;
2022/08/12 01:19:39;;;;;;;5.25;4.15;;;;;;;13.47;57.36914;95483.54;;;;
2022/08/12 01:20:40;;;;;;;5.25;4.15;;;;;;;13.47;57.36914;95483.54;;;;
2022/08/12 01:21:48;;;;;;;5.25;4.15;;;;;;;13.47;57.36914;95483.54;;;;
2022/08/12 01:23:11;;;;;;;5.25;4.15;;;;;;;13.47;57.36914;95483.54;;;;
2022/08/12 01:24:50;;;;;;;5.25;4.15;;;;;;;13.47;57.36914;95483.54;;;;
2022/08/12 01:25:57;;;;;;;6.4;4.349999;;;;;;;13.37;57.73633;95470;;;;
2022/08/12 01:27:02;;;;;;;6.4;4.349999;;;;;;;13.37;57.73633;95470;;;;
2022/08/12 01:28:03;;;;;;;6.4;4.349999;;;;;;;13.37;57.73633;95470;;;;
2022/08/12 01:29:07;;;;;;;6.4;4.349999;;;;;;;13.37;57.73633;95470;;;;
2022/08/12 01:30:11;;;;;;;6.4;4.349999;;;;;;;13.37;57.73633;95470;;;;
2022/08/12 01:31:13;;;;;;;6.4;4.349999;;;;;;;13.37;57.73633;95470;;;;
2022/08/12 01:32:16;;;;;;;6.4;4.349999;;;;;;;13.37;57.73633;95470;;;;
2022/08/12 01:33:19;;;;;;;6.4;4.349999;;;;;;;13.37;57.73633;95470;;;;
2022/08/12 01:34:21;;;;;;;6.4;4.349999;;;;;;;13.37;57.73633;95470;;;;
2022/08/12 01:35:27;;;;;;;6.4;4.349999;;;;;;;13.37;57.73633;95470;;;;
2022/08/12 01:36:31;;;;;;;5.45;4.35;;;;;;;13.19;58.2041;95478.8;;;;
2022/08/12 01:37:38;;;;;;;5.45;4.35;;;;;;;13.19;58.2041;95478.8;;;;
2022/08/12 01:38:46;;;;;;;5.45;4.35;;;;;;;13.19;58.2041;95478.8;;;;
2022/08/12 01:39:51;;;;;;;5.45;4.35;;;;;;;13.19;58.2041;95478.8;;;;
2022/08/12 01:40:54;;;;;;;5.45;4.35;;;;;;;13.19;58.2041;95478.8;;;;
2022/08/12 01:41:58;;;;;;;5.45;4.35;;;;;;;13.19;58.2041;95478.8;;;;
2022/08/12 01:43:02;;;;;;;5.45;4.35;;;;;;;13.19;58.2041;95478.8;;;;
2022/08/12 01:44:06;;;;;;;5.45;4.35;;;;;;;13.19;58.2041;95478.8;;;;
2022/08/12 01:45:11;;;;;;;5.45;4.35;;;;;;;13.19;58.2041;95478.8;;;;
2022/08/12 01:46:13;;;;;;;5.45;4.35;;;;;;;13.19;58.2041;95478.8;;;;
2022/08/12 01:47:24;;;;;;;4.750001;4.35;;;;;;;13.09;58.57031;95482.48;;;;
2022/08/12 01:48:49;;;;;;;4.750001;4.35;;;;;;;13.09;58.57031;95482.48;;;;
2022/08/12 01:50:16;;;;;;;4.750001;4.35;;;;;;;13.09;58.57031;95482.48;;;;
2022/08/12 01:51:25;;;;;;;4.750001;4.35;;;;;;;13.09;58.57031;95482.48;;;;
2022/08/12 01:52:34;;;;;;;4.750001;4.35;;;;;;;13.09;58.57031;95482.48;;;;
2022/08/12 01:53:47;;;;;;;4.750001;4.35;;;;;;;13.09;58.57031;95482.48;;;;
2022/08/12 01:54:59;;;;;;;4.750001;4.35;;;;;;;13.09;58.57031;95482.48;;;;
2022/08/12 01:56:02;;;;;;;4.750001;4.35;;;;;;;13.09;58.57031;95482.48;;;;
2022/08/12 01:57:02;;;;;;;4.750001;4.35;;;;;;;13.09;58.57031;95482.48;;;;
2022/08/12 01:58:10;;;;;;;5.3;4.450001;;;;;;;12.91;58.9043;95470.11;;;;
2022/08/12 01:59:58;;;;;;;5.3;4.450001;;;;;;;12.91;58.9043;95470.11;;;;
2022/08/12 02:01:03;;;;;;;5.3;4.450001;;;;;;;12.91;58.9043;95470.11;;;;
2022/08/12 02:02:10;;;;;;;5.3;4.450001;;;;;;;12.91;58.9043;95470.11;;;;
2022/08/12 02:03:15;;;;;;;5.3;4.450001;;;;;;;12.91;58.9043;95470.11;;;;
2022/08/12 02:15:30;;;;;;;5.45;4.95;;;;;;;12.82;59.28418;95464.81;;;;
2022/08/12 02:16:44;;;;;;;5.45;4.95;;;;;;;12.82;59.28418;95464.81;;;;
2022/08/12 02:17:57;;;;;;;5.45;4.95;;;;;;;12.82;59.28418;95464.81;;;;
2022/08/12 02:19:09;;;;;;;5.45;4.95;;;;;;;12.82;59.28418;95464.81;;;;
2022/08/12 02:20:22;;;;;;;4.900001;4.450001;;;;;;;12.66;59.66406;95469.25;;;;
2022/08/12 02:21:42;;;;;;;4.900001;4.450001;;;;;;;12.66;59.66406;95469.25;;;;
2022/08/12 02:22:51;;;;;;;4.900001;4.450001;;;;;;;12.66;59.66406;95469.25;;;;
2022/08/12 02:23:53;;;;;;;4.900001;4.450001;;;;;;;12.66;59.66406;95469.25;;;;
2022/08/12 02:24:54;;;;;;;4.900001;4.450001;;;;;;;12.66;59.66406;95469.25;;;;
2022/08/12 02:26:02;;;;;;;4.900001;4.450001;;;;;;;12.66;59.66406;95469.25;;;;
2022/08/12 02:27:07;;;;;;;4.900001;4.450001;;;;;;;12.66;59.66406;95469.25;;;;
2022/08/12 02:28:11;;;;;;;4.900001;4.450001;;;;;;;12.66;59.66406;95469.25;;;;
2022/08/12 02:29:12;;;;;;;4.900001;4.450001;;;;;;;12.66;59.66406;95469.25;;;;
2022/08/12 02:30:13;;;;;;;5.25;4.75;;;;;;;12.59;59.88379;95458.42;;;;
2022/08/12 02:31:16;;;;;;;5.25;4.75;;;;;;;12.59;59.88379;95458.42;;;;
2022/08/12 02:32:17;;;;;;;5.25;4.75;;;;;;;12.59;59.88379;95458.42;;;;
2022/08/12 02:33:18;;;;;;;5.25;4.75;;;;;;;12.59;59.88379;95458.42;;;;
2022/08/12 02:34:21;;;;;;;5.25;4.75;;;;;;;12.59;59.88379;95458.42;;;;
2022/08/12 02:35:22;;;;;;;5.25;4.75;;;;;;;12.59;59.88379;95458.42;;;;
2022/08/12 02:36:26;;;;;;;5.25;4.75;;;;;;;12.59;59.88379;95458.42;;;;
2022/08/12 02:37:29;;;;;;;5.25;4.75;;;;;;;12.59;59.88379;95458.42;;;;
2022/08/12 02:38:33;;;;;;;5.25;4.75;;;;;;;12.59;59.88379;95458.42;;;;
2022/08/12 02:39:35;;;;;;;5.25;4.75;;;;;;;12.59;59.88379;95458.42;;;;
2022/08/12 02:40:39;;;;;;;6.05;5.05;;;;;;;12.45;60.21094;95447.66;;;;
2022/08/12 02:41:42;;;;;;;6.05;5.05;;;;;;;12.45;60.21094;95447.66;;;;
2022/08/12 02:42:45;;;;;;;6.05;5.05;;;;;;;12.45;60.21094;95447.66;;;;
2022/08/12 02:43:52;;;;;;;6.05;5.05;;;;;;;12.45;60.21094;95447.66;;;;
2022/08/12 02:44:58;;;;;;;6.05;5.05;;;;;;;12.45;60.21094;95447.66;;;;
2022/08/12 02:46:02;;;;;;;6.05;5.05;;;;;;;12.45;60.21094;95447.66;;;;
2022/08/12 02:47:05;;;;;;;6.05;5.05;;;;;;;12.45;60.21094;95447.66;;;;
2022/08/12 02:48:07;;;;;;;6.05;5.05;;;;;;;12.45;60.21094;95447.66;;;;
2022/08/12 02:49:13;;;;;;;6.05;5.05;;;;;;;12.45;60.21094;95447.66;;;;
2022/08/12 02:50:20;;;;;;;6.05;5.05;;;;;;;12.45;60.21094;95447.66;;;;
2022/08/12 02:51:23;;;;;;;5.400001;4.9;;;;;;;12.37;60.54688;95447.96;;;;
2022/08/12 02:52:31;;;;;;;5.400001;4.9;;;;;;;12.37;60.54688;95447.96;;;;
2022/08/12 02:53:33;;;;;;;5.400001;4.9;;;;;;;12.37;60.54688;95447.96;;;;
2022/08/12 02:54:35;;;;;;;5.400001;4.9;;;;;;;12.37;60.54688;95447.96;;;;
2022/08/12 02:55:37;;;;;;;5.400001;4.9;;;;;;;12.37;60.54688;95447.96;;;;
2022/08/12 02:56:39;;;;;;;5.400001;4.9;;;;;;;12.37;60.54688;95447.96;;;;
2022/08/12 02:57:43;;;;;;;5.400001;4.9;;;;;;;12.37;60.54688;95447.96;;;;
2022/08/12 02:58:45;;;;;;;5.400001;4.9;;;;;;;12.37;60.54688;95447.96;;;;
2022/08/12 02:59:47;;;;;;;5.400001;4.9;;;;;;;12.37;60.54688;95447.96;;;;
2022/08/12 03:00:49;;;;;;;5.400001;4.9;;;;;;;12.37;60.54688;95447.96;;;;
2022/08/12 03:01:52;;;;;;;5.85;5.25;;;;;;;12.21;60.82813;95446.23;;;;
2022/08/12 03:02:54;;;;;;;5.85;5.25;;;;;;;12.21;60.82813;95446.23;;;;
2022/08/12 03:03:59;;;;;;;5.85;5.25;;;;;;;12.21;60.82813;95446.23;;;;
2022/08/12 03:05:03;;;;;;;5.85;5.25;;;;;;;12.21;60.82813;95446.23;;;;
2022/08/12 03:06:05;;;;;;;5.85;5.25;;;;;;;12.21;60.82813;95446.23;;;;
2022/08/12 03:07:13;;;;;;;5.85;5.25;;;;;;;12.21;60.82813;95446.23;;;;
2022/08/12 03:08:19;;;;;;;5.85;5.25;;;;;;;12.21;60.82813;95446.23;;;;
2022/08/12 03:09:27;;;;;;;5.85;5.25;;;;;;;12.21;60.82813;95446.23;;;;
2022/08/12 03:10:32;;;;;;;5.85;5.25;;;;;;;12.21;60.82813;95446.23;;;;
2022/08/12 03:11:38;;;;;;;5.85;5.25;;;;;;;12.21;60.82813;95446.23;;;;
2022/08/12 03:12:43;;;;;;;5.799999;4.950001;;;;;;;12.16;61.05957;95445.7;;;;
2022/08/12 03:13:45;;;;;;;5.799999;4.950001;;;;;;;12.16;61.05957;95445.7;;;;
2022/08/12 03:14:53;;;;;;;5.799999;4.950001;;;;;;;12.16;61.05957;95445.7;;;;
2022/08/12 03:15:54;;;;;;;5.799999;4.950001;;;;;;;12.16;61.05957;95445.7;;;;
2022/08/12 03:16:54;;;;;;;5.799999;4.950001;;;;;;;12.16;61.05957;95445.7;;;;
2022/08/12 03:18:06;;;;;;;5.799999;4.950001;;;;;;;12.16;61.05957;95445.7;;;;
2022/08/12 03:19:12;;;;;;;5.799999;4.950001;;;;;;;12.16;61.05957;95445.7;;;;
2022/08/12 03:20:14;;;;;;;5.799999;4.950001;;;;;;;12.16;61.05957;95445.7;;;;
2022/08/12 03:21:17;;;;;;;5.799999;4.950001;;;;;;;12.16;61.05957;95445.7;;;;
2022/08/12 03:22:19;;;;;;;5.799999;4.950001;;;;;;;12.16;61.05957;95445.7;;;;
2022/08/12 03:23:22;;;;;;;7;5.349999;;;;;;;12.03;61.44238;95440.51;;;;
2022/08/12 03:24:23;;;;;;;7;5.349999;;;;;;;12.03;61.44238;95440.51;;;;
2022/08/12 03:25:26;;;;;;;7;5.349999;;;;;;;12.03;61.44238;95440.51;;;;
2022/08/12 03:26:30;;;;;;;7;5.349999;;;;;;;12.03;61.44238;95440.51;;;;
2022/08/12 03:27:34;;;;;;;7;5.349999;;;;;;;12.03;61.44238;95440.51;;;;
2022/08/12 03:28:56;;;;;;;7;5.349999;;;;;;;12.03;61.44238;95440.51;;;;
2022/08/12 03:29:57;;;;;;;7;5.349999;;;;;;;12.03;61.44238;95440.51;;;;
2022/08/12 03:31:00;;;;;;;7;5.349999;;;;;;;12.03;61.44238;95440.51;;;;
2022/08/12 03:32:03;;;;;;;7;5.349999;;;;;;;12.03;61.44238;95440.51;;;;
2022/08/12 03:33:04;;;;;;;7;5.349999;;;;;;;12.03;61.44238;95440.51;;;;
2022/08/12 03:34:06;;;;;;;6.7;5.15;;;;;;;11.96;61.5625;95449.02;;;;
2022/08/12 03:35:08;;;;;;;6.7;5.15;;;;;;;11.96;61.5625;95449.02;;;;
2022/08/12 03:36:10;;;;;;;6.7;5.15;;;;;;;11.96;61.5625;95449.02;;;;
2022/08/12 03:37:16;;;;;;;6.7;5.15;;;;;;;11.96;61.5625;95449.02;;;;
2022/08/12 03:38:20;;;;;;;6.7;5.15;;;;;;;11.96;61.5625;95449.02;;;;
2022/08/12 03:39:36;;;;;;;6.7;5.15;;;;;;;11.96;61.5625;95449.02;;;;
2022/08/12 03:41:42;;;;;;;6.7;5.15;;;;;;;11.96;61.5625;95449.02;;;;
2022/08/12 04:03:51;;;;;;;7.100001;5.400001;;;;;;;11.71;62.14551;95456.53;;;;
2022/08/12 04:04:51;;;;;;;7.100001;5.400001;;;;;;;11.71;62.14551;95456.53;;;;
2022/08/12 04:05:52;;;;;;;5.75;5.199999;;;;;;;11.55;62.44727;95445.51;;;;
2022/08/12 04:06:52;;;;;;;5.75;5.199999;;;;;;;11.55;62.44727;95445.51;;;;
2022/08/12 04:07:53;;;;;;;5.75;5.199999;;;;;;;11.55;62.44727;95445.51;;;;
2022/08/12 04:08:56;;;;;;;5.75;5.199999;;;;;;;11.55;62.44727;95445.51;;;;
2022/08/12 04:09:58;;;;;;;5.75;5.199999;;;;;;;11.55;62.44727;95445.51;;;;
2022/08/12 04:16:17;;;;;;;5.75;5.199999;;;;;;;11.55;62.44727;95445.51;;;;
2022/08/12 04:17:19;;;;;;;6.8;5.5;;;;;;;11.51;62.63574;95443.38;;;;
2022/08/12 04:18:20;;;;;;;6.8;5.5;;;;;;;11.51;62.63574;95443.38;;;;
2022/08/12 04:19:22;;;;;;;6.8;5.5;;;;;;;11.51;62.63574;95443.38;;;;
2022/08/12 04:20:23;;;;;;;6.8;5.5;;;;;;;11.51;62.63574;95443.38;;;;
2022/08/12 04:21:24;;;;;;;6.8;5.5;;;;;;;11.51;62.63574;95443.38;;;;
2022/08/12 04:22:25;;;;;;;6.8;5.5;;;;;;;11.51;62.63574;95443.38;;;;
2022/08/12 04:23:27;;;;;;;6.8;5.5;;;;;;;11.51;62.63574;95443.38;;;;
2022/08/12 04:24:29;;;;;;;6.8;5.5;;;;;;;11.51;62.63574;95443.38;;;;
2022/08/12 04:25:31;;;;;;;6.8;5.5;;;;;;;11.51;62.63574;95443.38;;;;
2022/08/12 04:26:35;;;;;;;6.8;5.5;;;;;;;11.51;62.63574;95443.38;;;;
2022/08/12 04:27:36;;;;;;;6;5.4;;;;;;;11.46;62.87793;95459.63;;;;
2022/08/12 04:28:36;;;;;;;6;5.4;;;;;;;11.46;62.87793;95459.63;;;;
2022/08/12 04:29:37;;;;;;;6;5.4;;;;;;;11.46;62.87793;95459.63;;;;
2022/08/12 04:30:39;;;;;;;6;5.4;;;;;;;11.46;62.87793;95459.63;;;;
2022/08/12 04:31:39;;;;;;;6;5.4;;;;;;;11.46;62.87793;95459.63;;;;
2022/08/12 04:32:42;;;;;;;6;5.4;;;;;;;11.46;62.87793;95459.63;;;;
2022/08/12 04:33:42;;;;;;;6;5.4;;;;;;;11.46;62.87793;95459.63;;;;
2022/08/12 04:34:43;;;;;;;6;5.4;;;;;;;11.46;62.87793;95459.63;;;;
2022/08/12 04:35:45;;;;;;;6;5.4;;;;;;;11.46;62.87793;95459.63;;;;
2022/08/12 04:36:46;;;;;;;6;5.4;;;;;;;11.46;62.87793;95459.63;;;;
2022/08/12 04:37:46;;;;;;;6;5.4;;;;;;;11.46;62.87793;95459.63;;;;
2022/08/12 04:38:51;;;;;;;7.9;5.000001;;;;;;;11.52;62.99512;95454.3;;;;
2022/08/12 04:39:53;;;;;;;7.9;5.000001;;;;;;;11.52;62.99512;95454.3;;;;
2022/08/12 04:40:54;;;;;;;7.9;5.000001;;;;;;;11.52;62.99512;95454.3;;;;
2022/08/12 04:41:59;;;;;;;7.9;5.000001;;;;;;;11.52;62.99512;95454.3;;;;
2022/08/12 04:42:59;;;;;;;7.9;5.000001;;;;;;;11.52;62.99512;95454.3;;;;
2022/08/12 04:44:00;;;;;;;7.9;5.000001;;;;;;;11.52;62.99512;95454.3;;;;
2022/08/12 04:45:00;;;;;;;7.9;5.000001;;;;;;;11.52;62.99512;95454.3;;;;
2022/08/12 04:46:01;;;;;;;7.9;5.000001;;;;;;;11.52;62.99512;95454.3;;;;
2022/08/12 04:47:02;;;;;;;7.9;5.000001;;;;;;;11.52;62.99512;95454.3;;;;
2022/08/12 04:48:03;;;;;;;7.9;5.000001;;;;;;;11.52;62.99512;95454.3;;;;
2022/08/12 04:49:04;;;;;;;5.7;5.15;;;;;;;11.58;63.05762;95463.2;;;;
2022/08/12 04:50:04;;;;;;;5.7;5.15;;;;;;;11.58;63.05762;95463.2;;;;
2022/08/12 04:51:07;;;;;;;5.7;5.15;;;;;;;11.58;63.05762;95463.2;;;;
2022/08/12 04:52:08;;;;;;;5.7;5.15;;;;;;;11.58;63.05762;95463.2;;;;
2022/08/12 04:53:09;;;;;;;5.7;5.15;;;;;;;11.58;63.05762;95463.2;;;;
2022/08/12 04:54:09;;;;;;;5.7;5.15;;;;;;;11.58;63.05762;95463.2;;;;
2022/08/12 04:55:11;;;;;;;5.7;5.15;;;;;;;11.58;63.05762;95463.2;;;;
2022/08/12 04:56:11;;;;;;;5.7;5.15;;;;;;;11.58;63.05762;95463.2;;;;
2022/08/12 04:57:13;;;;;;;5.7;5.15;;;;;;;11.58;63.05762;95463.2;;;;
2022/08/12 04:58:13;;;;;;;5.7;5.15;;;;;;;11.58;63.05762;95463.2;;;;
2022/08/12 04:59:14;;;;;;;5.7;5.15;;;;;;;11.58;63.05762;95463.2;;;;
2022/08/12 05:00:15;;;;;;;6.6;5.35;;;;;;;11.72;63.16504;95459.88;;;;
2022/08/12 05:01:17;;;;;;;6.6;5.35;;;;;;;11.72;63.16504;95459.88;;;;
2022/08/12 05:02:17;;;;;;;6.6;5.35;;;;;;;11.72;63.16504;95459.88;;;;
2022/08/12 05:03:19;;;;;;;6.6;5.35;;;;;;;11.72;63.16504;95459.88;;;;
2022/08/12 05:04:20;;;;;;;6.6;5.35;;;;;;;11.72;63.16504;95459.88;;;;
2022/08/12 05:05:22;;;;;;;6.6;5.35;;;;;;;11.72;63.16504;95459.88;;;;
2022/08/12 05:06:23;;;;;;;6.6;5.35;;;;;;;11.72;63.16504;95459.88;;;;
2022/08/12 05:07:26;;;;;;;6.6;5.35;;;;;;;11.72;63.16504;95459.88;;;;
2022/08/12 05:08:27;;;;;;;6.6;5.35;;;;;;;11.72;63.16504;95459.88;;;;
2022/08/12 05:09:28;;;;;;;6.6;5.35;;;;;;;11.72;63.16504;95459.88;;;;
2022/08/12 05:10:28;;;;;;;6.65;5.75;;;;;;;11.88;63.10059;95458.56;;;;
2022/08/12 05:11:29;;;;;;;6.65;5.75;;;;;;;11.88;63.10059;95458.56;;;;
2022/08/12 05:12:29;;;;;;;6.65;5.75;;;;;;;11.88;63.10059;95458.56;;;;
2022/08/12 05:13:36;;;;;;;6.65;5.75;;;;;;;11.88;63.10059;95458.56;;;;
2022/08/12 05:14:39;;;;;;;6.65;5.75;;;;;;;11.88;63.10059;95458.56;;;;
2022/08/12 05:15:39;;;;;;;6.65;5.75;;;;;;;11.88;63.10059;95458.56;;;;
2022/08/12 05:16:41;;;;;;;6.65;5.75;;;;;;;11.88;63.10059;95458.56;;;;
2022/08/12 05:17:42;;;;;;;6.65;5.75;;;;;;;11.88;63.10059;95458.56;;;;
2022/08/12 05:18:43;;;;;;;6.65;5.75;;;;;;;11.88;63.10059;95458.56;;;;
2022/08/12 05:19:43;;;;;;;6.65;5.75;;;;;;;11.88;63.10059;95458.56;;;;
2022/08/12 05:20:44;;;;;;;8;5.450001;;;;;;;12.2;63.1582;95474.6;;;;
2022/08/12 05:21:45;;;;;;;8;5.450001;;;;;;;12.2;63.1582;95474.6;;;;
2022/08/12 05:22:45;;;;;;;8;5.450001;;;;;;;12.2;63.1582;95474.6;;;;
2022/08/12 05:23:46;;;;;;;8;5.450001;;;;;;;12.2;63.1582;95474.6;;;;
2022/08/12 05:24:47;;;;;;;8;5.450001;;;;;;;12.2;63.1582;95474.6;;;;
2022/08/12 05:25:47;;;;;;;8;5.450001;;;;;;;12.2;63.1582;95474.6;;;;
2022/08/12 05:26:51;;;;;;;8;5.450001;;;;;;;12.2;63.1582;95474.6;;;;
2022/08/12 05:27:52;;;;;;;8;5.450001;;;;;;;12.2;63.1582;95474.6;;;;
2022/08/12 05:28:52;;;;;;;8;5.450001;;;;;;;12.2;63.1582;95474.6;;;;
2022/08/12 05:29:53;;;;;;;8;5.450001;;;;;;;12.2;63.1582;95474.6;;;;
2022/08/12 05:30:53;;;;;;;8;5.450001;;;;;;;12.2;63.1582;95474.6;;;;
2022/08/12 05:31:56;;;;;;;9.15;5.55;;;;;;;12.57;63.15723;95472.82;;;;
2022/08/12 05:32:57;;;;;;;9.15;5.55;;;;;;;12.57;63.15723;95472.82;;;;
2022/08/12 05:33:58;;;;;;;9.15;5.55;;;;;;;12.57;63.15723;95472.82;;;;
2022/08/12 05:35:01;;;;;;;9.15;5.55;;;;;;;12.57;63.15723;95472.82;;;;
2022/08/12 05:36:02;;;;;;;9.15;5.55;;;;;;;12.57;63.15723;95472.82;;;;
2022/08/12 05:37:03;;;;;;;9.15;5.55;;;;;;;12.57;63.15723;95472.82;;;;
2022/08/12 05:39:09;;;;;;;9.15;5.55;;;;;;;12.57;63.15723;95472.82;;;;
2022/08/12 05:40:09;;;;;;;9.15;5.55;;;;;;;12.57;63.15723;95472.82;;;;
2022/08/12 05:41:19;;;;;;;9.15;5.55;;;;;;;12.57;63.15723;95472.82;;;;
2022/08/12 05:42:23;;;;;;;6.6;5.600001;;;;;;;13.09;62.97266;95471.36;;;;
2022/08/12 05:43:24;;;;;;;6.6;5.600001;;;;;;;13.09;62.97266;95471.36;;;;
2022/08/12 05:44:24;;;;;;;6.6;5.600001;;;;;;;13.09;62.97266;95471.36;;;;
2022/08/12 05:45:25;;;;;;;6.6;5.600001;;;;;;;13.09;62.97266;95471.36;;;;
2022/08/12 05:46:25;;;;;;;6.6;5.600001;;;;;;;13.09;62.97266;95471.36;;;;
2022/08/12 05:47:28;;;;;;;6.6;5.600001;;;;;;;13.09;62.97266;95471.36;;;;
2022/08/12 05:48:31;;;;;;;6.6;5.600001;;;;;;;13.09;62.97266;95471.36;;;;
2022/08/12 05:49:33;;;;;;;6.6;5.600001;;;;;;;13.09;62.97266;95471.36;;;;
2022/08/12 05:50:34;;;;;;;6.6;5.600001;;;;;;;13.09;62.97266;95471.36;;;;
2022/08/12 05:51:34;;;;;;;6.6;5.600001;;;;;;;13.09;62.97266;95471.36;;;;
2022/08/12 05:52:37;;;;;;;7.099999;5.299999;;;;;;;13.62;62.83008;95478.53;;;;
2022/08/12 05:53:37;;;;;;;7.099999;5.299999;;;;;;;13.62;62.83008;95478.53;;;;
2022/08/12 05:54:43;;;;;;;7.099999;5.299999;;;;;;;13.62;62.83008;95478.53;;;;
2022/08/12 05:55:44;;;;;;;7.099999;5.299999;;;;;;;13.62;62.83008;95478.53;;;;
2022/08/12 05:56:44;;;;;;;7.099999;5.299999;;;;;;;13.62;62.83008;95478.53;;;;
2022/08/12 05:57:48;;;;;;;7.099999;5.299999;;;;;;;13.62;62.83008;95478.53;;;;
2022/08/12 05:58:52;;;;;;;7.099999;5.299999;;;;;;;13.62;62.83008;95478.53;;;;
2022/08/12 05:59:53;;;;;;;7.099999;5.299999;;;;;;;13.62;62.83008;95478.53;;;;
2022/08/12 06:00:55;;;;;;;7.099999;5.299999;;;;;;;13.62;62.83008;95478.53;;;;
2022/08/12 06:02:02;;;;;;;7.099999;5.299999;;;;;;;13.62;62.83008;95478.53;;;;
2022/08/12 06:03:03;;;;;;;7.099999;5.299999;;;;;;;13.62;62.83008;95478.53;;;;
2022/08/12 06:04:05;;;;;;;7.15;4.900001;;;;;;;14.38;62.66504;95475.16;;;;
2022/08/12 06:05:09;;;;;;;7.15;4.900001;;;;;;;14.38;62.66504;95475.16;;;;
2022/08/12 06:06:09;;;;;;;7.15;4.900001;;;;;;;14.38;62.66504;95475.16;;;;
2022/08/12 06:07:13;;;;;;;7.15;4.900001;;;;;;;14.38;62.66504;95475.16;;;;
2022/08/12 06:08:14;;;;;;;7.15;4.900001;;;;;;;14.38;62.66504;95475.16;;;;
2022/08/12 06:09:15;;;;;;;7.15;4.900001;;;;;;;14.38;62.66504;95475.16;;;;
2022/08/12 06:10:15;;;;;;;7.15;4.900001;;;;;;;14.38;62.66504;95475.16;;;;
2022/08/12 06:11:17;;;;;;;7.15;4.900001;;;;;;;14.38;62.66504;95475.16;;;;
2022/08/12 06:12:22;;;;;;;7.15;4.900001;;;;;;;14.38;62.66504;95475.16;;;;
2022/08/12 06:13:23;;;;;;;7.15;4.900001;;;;;;;14.38;62.66504;95475.16;;;;
2022/08/12 06:14:23;;;;;;;7.15;4.900001;;;;;;;14.38;62.66504;95475.16;;;;
2022/08/12 06:15:24;;;;;;;7.15;4.900001;;;;;;;14.38;62.66504;95475.16;;;;
2022/08/12 06:16:24;;;;;;;7.15;4.900001;;;;;;;14.38;62.66504;95475.16;;;;
2022/08/12 06:17:25;;;;;;;7.15;4.900001;;;;;;;14.38;62.66504;95475.16;;;;
2022/08/12 06:18:26;;;;;;;7.15;4.900001;;;;;;;14.38;62.66504;95475.16;;;;
2022/08/12 06:19:28;;;;;;;7.15;4.900001;;;;;;;14.38;62.66504;95475.16;;;;
2022/08/12 06:20:29;;;;;;;7.15;4.900001;;;;;;;14.38;62.66504;95475.16;;;;
2022/08/12 06:21:29;;;;;;;7.15;4.900001;;;;;;;14.38;62.66504;95475.16;;;;
2022/08/12 06:22:30;;;;;;;7.15;4.900001;;;;;;;14.38;62.66504;95475.16;;;;
2022/08/12 06:23:30;;;;;;;7.15;4.900001;;;;;;;14.38;62.66504;95475.16;;;;
2022/08/12 06:24:32;;;;;;;7.15;4.900001;;;;;;;14.38;62.66504;95475.16;;;;
2022/08/12 06:25:33;;;;;;;7.15;4.900001;;;;;;;14.38;62.66504;95475.16;;;;
2022/08/12 06:26:33;;;;;;;7.15;4.900001;;;;;;;14.38;62.66504;95475.16;;;;
2022/08/12 06:27:34;;;;;;;7.15;4.900001;;;;;;;14.38;62.66504;95475.16;;;;
2022/08/12 06:28:40;;;;;;;7.15;4.900001;;;;;;;14.38;62.66504;95475.16;;;;
2022/08/12 06:29:42;;;;;;;7.15;4.900001;;;;;;;14.38;62.66504;95475.16;;;;
2022/08/12 06:30:43;;;;;;;7.15;4.900001;;;;;;;14.38;62.66504;95475.16;;;;
2022/08/12 06:31:49;;;;;;;7.15;4.900001;;;;;;;14.38;62.66504;95475.16;;;;
2022/08/12 06:32:51;;;;;;;7.15;4.900001;;;;;;;14.38;62.66504;95475.16;;;;
2022/08/12 06:33:52;;;;;;;7.15;4.900001;;;;;;;14.38;62.66504;95475.16;;;;
2022/08/12 06:34:55;;;;;;;7.15;4.900001;;;;;;;14.38;62.66504;95475.16;;;;
2022/08/12 06:35:56;;;;;;;5.8;3.900001;;;;;;;16.95;60.84082;95470.86;;;;
2022/08/12 06:36:56;;;;;;;5.8;3.900001;;;;;;;16.95;60.84082;95470.86;;;;
2022/08/12 06:37:56;;;;;;;5.8;3.900001;;;;;;;16.95;60.84082;95470.86;;;;
2022/08/12 06:38:57;;;;;;;5.8;3.900001;;;;;;;16.95;60.84082;95470.86;;;;
2022/08/12 06:39:58;;;;;;;5.8;3.900001;;;;;;;16.95;60.84082;95470.86;;;;
2022/08/12 06:46:09;;;;;;;5.699999;3.65;;;;;;;19.68;56.72363;95458.63;;;;
2022/08/12 06:47:10;;;;;;;5.699999;3.65;;;;;;;19.68;56.72363;95458.63;;;;
2022/08/12 06:48:11;;;;;;;5.699999;3.65;;;;;;;19.68;56.72363;95458.63;;;;
2022/08/12 06:49:12;;;;;;;5.699999;3.65;;;;;;;19.68;56.72363;95458.63;;;;
2022/08/12 06:50:14;;;;;;;5.699999;3.65;;;;;;;19.68;56.72363;95458.63;;;;
2022/08/12 06:51:18;;;;;;;5.699999;3.65;;;;;;;19.68;56.72363;95458.63;;;;
2022/08/12 06:52:23;;;;;;;5.699999;3.65;;;;;;;19.68;56.72363;95458.63;;;;
2022/08/12 06:53:25;;;;;;;5.699999;3.65;;;;;;;19.68;56.72363;95458.63;;;;
2022/08/12 06:54:26;;;;;;;5.699999;3.65;;;;;;;19.68;56.72363;95458.63;;;;
2022/08/12 06:55:26;;;;;;;5.699999;3.65;;;;;;;19.68;56.72363;95458.63;;;;
2022/08/12 06:56:27;;;;;;;5.699999;3.65;;;;;;;19.68;56.72363;95458.63;;;;
2022/08/12 06:57:28;;;;;;;4.150001;3.4;;;;;;;22.57;52.55371;95447.22;;;;
2022/08/12 06:58:29;;;;;;;4.150001;3.4;;;;;;;22.57;52.55371;95447.22;;;;
2022/08/12 06:59:31;;;;;;;4.150001;3.4;;;;;;;22.57;52.55371;95447.22;;;;
2022/08/12 07:00:32;;;;;;;4.150001;3.4;;;;;;;22.57;52.55371;95447.22;;;;
2022/08/12 07:01:35;;;;;;;4.150001;3.4;;;;;;;22.57;52.55371;95447.22;;;;
2022/08/12 07:02:35;;;;;;;4.150001;3.4;;;;;;;22.57;52.55371;95447.22;;;;
2022/08/12 07:03:37;;;;;;;4.150001;3.4;;;;;;;22.57;52.55371;95447.22;;;;
2022/08/12 07:04:37;;;;;;;4.150001;3.4;;;;;;;22.57;52.55371;95447.22;;;;
2022/08/12 07:05:38;;;;;;;4.150001;3.4;;;;;;;22.57;52.55371;95447.22;;;;
2022/08/12 07:06:38;;;;;;;4.150001;3.4;;;;;;;22.57;52.55371;95447.22;;;;
2022/08/12 07:07:39;;;;;;;4.9;3.8;;;;;;;24.68;49.6582;95440.45;;;;
2022/08/12 07:08:39;;;;;;;4.9;3.8;;;;;;;24.68;49.6582;95440.45;;;;
2022/08/12 07:09:41;;;;;;;4.9;3.8;;;;;;;24.68;49.6582;95440.45;;;;
2022/08/12 07:10:41;;;;;;;4.9;3.8;;;;;;;24.68;49.6582;95440.45;;;;
2022/08/12 07:11:44;;;;;;;4.9;3.8;;;;;;;24.68;49.6582;95440.45;;;;
2022/08/12 07:12:44;;;;;;;4.9;3.8;;;;;;;24.68;49.6582;95440.45;;;;
2022/08/12 07:13:45;;;;;;;4.9;3.8;;;;;;;24.68;49.6582;95440.45;;;;
2022/08/12 07:14:50;;;;;;;4.9;3.8;;;;;;;24.68;49.6582;95440.45;;;;
2022/08/12 07:15:55;;;;;;;4.9;3.8;;;;;;;24.68;49.6582;95440.45;;;;
2022/08/12 07:17:00;;;;;;;4.9;3.8;;;;;;;24.68;49.6582;95440.45;;;;
2022/08/12 07:18:05;;;;;;;4.9;3.8;;;;;;;24.68;49.6582;95440.45;;;;
2022/08/12 07:19:10;;;;;;;4.9;3.8;;;;;;;24.68;49.6582;95440.45;;;;
2022/08/12 07:20:11;;;;;;;4.9;3.8;;;;;;;24.68;49.6582;95440.45;;;;
2022/08/12 07:21:12;;;;;;;4.9;3.8;;;;;;;24.68;49.6582;95440.45;;;;
2022/08/12 07:22:13;;;;;;;4.9;3.8;;;;;;;24.68;49.6582;95440.45;;;;
2022/08/12 07:23:14;;;;;;;4.9;3.8;;;;;;;24.68;49.6582;95440.45;;;;
2022/08/12 07:24:16;;;;;;;4.9;3.8;;;;;;;24.68;49.6582;95440.45;;;;
2022/08/12 07:25:33;;;;;;;4.9;3.8;;;;;;;24.68;49.6582;95440.45;;;;
2022/08/12 07:26:40;;;;;;;4.9;3.8;;;;;;;24.68;49.6582;95440.45;;;;
2022/08/12 07:27:41;;;;;;;4.9;3.8;;;;;;;24.68;49.6582;95440.45;;;;
2022/08/12 07:28:42;;;;;;;4.9;3.8;;;;;;;24.68;49.6582;95440.45;;;;